LUR weather

Cape Lisburne LRRS Airport
Cape Lisburne, Alaska, United States

Public forecast

Using degrees Fahrenheit for public forecast. Weather courtesy of forecast.io.

Current aviation weather report (METAR) for Cape Lisburne LRRS Airport

Retrieved 2020/06/02 11:55 UTC (23 minutes ago):

PALU 021155Z AUTO 00000KT 10SM CLR 05/03 A2961

Closest aviation forecast (TAF) to Cape Lisburne LRRS Airport

Closest forecast is Ralph Wien Memorial Airport, 143.4 nm (265.6 km) SE. Retrieved 2020/06/02 12:27 UTC (0 seconds ago):

TAF PAOT 021124Z 0212/0312 28013KT P6SM SKC